Terminal Aerodrome Forecast
Issued by NWS

Home | Current Version | Previous Version | Text Only | Print | Product List | Glossary On
Versions: 1 2 3 4 5 6 7 8 9 10 11 12 13 14 15 16 17 18 19 20
000
FTUS44 KTSA 181600 AAB
TAFXNA
TAF AMD
KXNA 181616Z 1816/1912 00000KT 4SM BR OVC004
     FM181800 14004KT 4SM BR OVC007
     FM182100 02005KT 5SM BR OVC012=

USA.gov is the U.S. government's official web portal to all federal, state and local government web resources and services.